Portland, Ohio
Current Conditions -  °F | °C
As of 11:15 AM on Tuesday 21 Oct 2014 (Local Time) from K3I2 Reporting Station
Overcast Overcast  
Wind Chill: 54°   Ceiling: 2200
Heat Index: 54°   Visibility: 7mi
Dew Point: 50°   Wind: 7mph
Humidity: 88%   Direction: 290°WNW
Pressure: 29.96"   Gusts: NA
Location:  39°N, 81.8°W
Report Text: K3I2 211515Z AUTO 29006KT 7SM SCT013 BKN022 OVC038 12/10 A2996 RMK AO2
Loading
Personal Weather Stations






























Interactive Weather Map
Tropical Storm Tracking
New forecast layout! Learn more

10-Day Weather Forecast

Advertisements
Track Severe Weather on mobile